LOG432 EGPF-EGCC
Flight info
| Callsign | LOG432 |
|---|---|
| Flight time | N/A |
| Altitude | 25000 |
| Route | NORBO T256 DCS L612 LAKEY |
| Aircraft | E135/M-SDFGIRW/S |
Departure
| Time | 2026-04-27 21:08 |
|---|---|
| Airport | Glasgow Airport (EGPF) |
Arrival
| Time | N/A |
|---|---|
| Airport | Manchester Airport (EGCC) |
| Time | Latitude | Longitude | Altitude | Speed | Heading |
|---|---|---|---|---|---|
| 2026-04-27 20:48 | 55.86454 | -4.44097 | 24 ft | 0 kts | 242° |
| 2026-04-27 20:59 | 55.86454 | -4.44095 | 24 ft | 1 kts | 242° |
| 2026-04-27 20:59 | 55.86461 | -4.44072 | 24 ft | 2 kts | 251° |
| 2026-04-27 20:59 | 55.86465 | -4.44046 | 24 ft | 2 kts | 263° |
| 2026-04-27 21:00 | 55.86465 | -4.44019 | 24 ft | 2 kts | 275° |
| 2026-04-27 21:00 | 55.86463 | -4.43992 | 24 ft | 2 kts | 287° |
| 2026-04-27 21:00 | 55.86457 | -4.43968 | 24 ft | 2 kts | 298° |
| 2026-04-27 21:00 | 55.86449 | -4.43945 | 25 ft | 2 kts | 311° |
| 2026-04-27 21:01 | 55.86438 | -4.43926 | 25 ft | 2 kts | 323° |
| 2026-04-27 21:01 | 55.86428 | -4.43914 | 25 ft | 1 kts | 332° |
| 2026-04-27 21:01 | 55.86427 | -4.43914 | 25 ft | 0 kts | 332° |
| 2026-04-27 21:04 | 55.86430 | -4.43916 | 25 ft | 1 kts | 332° |
| 2026-04-27 21:04 | 55.86453 | -4.43938 | 24 ft | 5 kts | 332° |
| 2026-04-27 21:04 | 55.86498 | -4.43981 | 24 ft | 9 kts | 332° |
| 2026-04-27 21:05 | 55.86549 | -4.44067 | 23 ft | 11 kts | 277° |
| 2026-04-27 21:05 | 55.86497 | -4.44191 | 24 ft | 13 kts | 226° |
| 2026-04-27 21:05 | 55.86425 | -4.44324 | 24 ft | 16 kts | 226° |
| 2026-04-27 21:05 | 55.86341 | -4.44480 | 24 ft | 18 kts | 226° |
| 2026-04-27 21:06 | 55.86252 | -4.44660 | 24 ft | 19 kts | 249° |
| 2026-04-27 21:06 | 55.86267 | -4.44738 | 24 ft | 4 kts | 316° |
| 2026-04-27 21:06 | 55.86283 | -4.44765 | 24 ft | 0 kts | 318° |
| 2026-04-27 21:07 | 55.86287 | -4.44771 | 24 ft | 2 kts | 318° |
| 2026-04-27 21:07 | 55.86315 | -4.44816 | 24 ft | 10 kts | 318° |
| 2026-04-27 21:07 | 55.86383 | -4.44841 | 24 ft | 9 kts | 43° |
| 2026-04-27 21:07 | 55.86478 | -4.44663 | 24 ft | 44 kts | 46° |
| 2026-04-27 21:08 | 55.86871 | -4.43928 | 22 ft | 115 kts | 47° |
| 2026-04-27 21:08 | 55.87538 | -4.42683 | 216 ft | 146 kts | 47° |
| 2026-04-27 21:08 | 55.88232 | -4.41352 | 876 ft | 151 kts | 49° |
| 2026-04-27 21:08 | 55.89003 | -4.40022 | 1528 ft | 159 kts | 36° |
| 2026-04-27 21:09 | 55.89852 | -4.38690 | 2122 ft | 172 kts | 48° |
| 2026-04-27 21:09 | 55.90669 | -4.37089 | 2886 ft | 177 kts | 49° |
| 2026-04-27 21:09 | 55.91490 | -4.35438 | 3691 ft | 181 kts | 50° |
| 2026-04-27 21:09 | 55.92324 | -4.33744 | 4455 ft | 189 kts | 50° |
| 2026-04-27 21:10 | 55.93437 | -4.31995 | 4500 ft | 234 kts | 31° |
| 2026-04-27 21:10 | 55.95089 | -4.31174 | 4837 ft | 259 kts | 2° |
| 2026-04-27 21:10 | 55.96847 | -4.32043 | 5708 ft | 265 kts | 333° |
| 2026-04-27 21:10 | 55.98129 | -4.34415 | 6559 ft | 273 kts | 303° |
| 2026-04-27 21:11 | 55.98591 | -4.37720 | 7302 ft | 283 kts | 273° |
| 2026-04-27 21:11 | 55.98072 | -4.41114 | 8008 ft | 293 kts | 244° |
| 2026-04-27 21:11 | 55.97088 | -4.44344 | 8722 ft | 295 kts | 247° |